Casper, WY

12:32 PM MDT on July 31, 2014 (GMT -0600)
Natrona County International (KCPR) Elev 5289 ft | 42.90 °N, 106.47 °W | Change Station

Current weather conditions updated 39 minutes ago

Clear
Clear
78 °F
Feels Like 78 °F
N
8
Wind Variable Wind from SSE

Today is forecast to be nearly the same temperature as yesterday.

Today
High -- | Low -- °F
--% Chance of Precip.
Yesterday
High -- | Low -- °F
Precip. -- in
5:55 AM 8:27 PM
Waxing Crescent, 20% visible
Pressure 30.10 in
Visibility 10.0 miles
Clouds Clear
Dew Point 29 °F
Humidity 17%
Rainfall 0.00 in
Snow Depth 0 in
UV 11 out of 12
Pollen 6.20 out of 12
Air Quality Not available.
Flu Activity Not available.
METAR KCPR 311753Z 15007KT 10SM CLR 26/M02 A3028 RMK AO2 SLP191 T02561017 10256 20072 58006

More Conditions Fewer Conditions

Pressure 30.10 in
Visibility 10.0 miles
Clouds Clear
Dew Point 29 °F
Humidity 17%
Rainfall 0.00 in
Snow Depth 0 in
UV 11 out of 12
Pollen 6.20 out of 12
Air Quality Not available.
Flu Activity Not available.
METAR KCPR 311753Z 15007KT 10SM CLR 26/M02 A3028 RMK AO2 SLP191 T02561017 10256 20072 58006

More Conditions Fewer Conditions

10-Day Weather Forecast

Almanac

Astronomy

Jul. 31, 2014 Rise Set
Actual Time 5:55 AM MDT 8:27 PM MDT
Civil Twilight 5:23 AM MDT 8:59 PM MDT
Nautical Twilight 4:43 AM MDT 9:39 PM MDT
Astronomical Twilight 3:57 AM MDT 10:24 PM MDT
Moon 10:33 AM MDT 10:33 PM MDT
Length of Visible Light 15h 35m
Length of Day
14h 31m
Tomorrow will be 2m 12s shorter.
Waxing Crescent, 20% of the Moon is Illuminated
Today
Waxing Crescent
Aug 3
First Quarter
Aug 10
Full
Aug 17
Last Quarter
Aug 25
New

Today's Extremes

State Highs State Lows

Community

WunderPhotos

Upload Photos

1,739,422 photos uploaded!

Nearby

Snow Depth

Station Depth Elevation
Casper Mountain 0 in 7850 ft
Sand Lake 0 in 10050 ft
South Brush Creek 0 in 8440 ft
Cinnabar Park 1 in 9690 ft
Old Battle 0 in 9920 ft

Earthquake Activity

City Distance Mag. Time & Date
No recent earthquake activity has been reported nearby.
Minimum magnitude displayed is 2.5.

Coastal Water Temperatures

Place Temperature
No Stations Reporting

Nearby Weather Stations

Station Location Temp. Heat Index Dew Point Humidity Wind Precip. Elev Updated Type
HADS NORTH PLATTE RIVER AT CASPER WY, Casper, WY 76 °F 74 °F - - North  at  - 0.00 in / hr 5100 ft 11:30 AM MDT MADIS
North of Casper, WY, Bar Nunn, WY 85.2 °F 82 °F 42 °F 22% NNE  at  0.0 mph 0.00 in / hr 5276 ft 12:31 PM MDT Normal
RAWS CASPER MOUNTAIN WY, Casper, WY 70 °F - 25 °F 18% ESE  at  5 mph 0.00 in / hr 7740 ft 10:52 AM MDT MADIS

Show More Stations Show Fewer Stations